createdAt,value
2023-03-02T00:01:00.126Z,5.77
2023-03-02T00:03:29.031Z,5.75
2023-03-02T00:05:57.508Z,5.77
2023-03-02T00:08:25.291Z,5.68
2023-03-02T00:10:54.534Z,5.66
2023-03-02T00:13:23.977Z,5.70
2023-03-02T00:15:51.696Z,5.68
2023-03-02T00:18:19.400Z,5.68
2023-03-02T00:20:47.121Z,5.64
2023-03-02T00:23:16.265Z,5.58
2023-03-02T00:25:43.989Z,5.59
2023-03-02T00:28:11.695Z,5.60
2023-03-02T00:30:40.734Z,5.60
2023-03-02T00:33:08.399Z,5.62
2023-03-02T00:35:38.972Z,5.65
2023-03-02T00:38:07.292Z,5.60
2023-03-02T00:40:35.347Z,5.57
2023-03-02T00:43:03.018Z,5.58
2023-03-02T00:45:30.793Z,5.56
2023-03-02T00:47:59.869Z,5.57
2023-03-02T00:50:27.501Z,5.53
2023-03-02T00:52:55.142Z,5.53
2023-03-02T00:55:22.940Z,5.51
2023-03-02T00:57:55.088Z,5.59
2023-03-02T01:00:23.610Z,5.59
2023-03-02T01:02:52.053Z,5.53
2023-03-02T01:05:21.295Z,5.53
2023-03-02T01:07:49.324Z,5.52
2023-03-02T01:10:20.097Z,5.50
2023-03-02T01:12:47.792Z,5.47
2023-03-02T01:15:15.512Z,5.45
2023-03-02T01:17:43.886Z,5.47
2023-03-02T01:20:12.626Z,5.46
2023-03-02T01:22:42.656Z,5.43
2023-03-02T01:25:11.091Z,5.43
2023-03-02T01:27:38.862Z,5.37
2023-03-02T01:30:07.958Z,5.36
2023-03-02T01:32:35.779Z,5.33
2023-03-02T01:35:03.794Z,5.27
2023-03-02T01:37:31.464Z,5.23
2023-03-02T01:40:06.627Z,5.16
2023-03-02T01:42:38.122Z,5.09
2023-03-02T01:45:07.407Z,5.00
2023-03-02T01:47:37.563Z,5.03
2023-03-02T01:50:13.738Z,5.06
2023-03-02T01:52:41.707Z,5.10
2023-03-02T01:55:16.884Z,5.09
2023-03-02T01:57:47.842Z,5.14
2023-03-02T02:00:19.468Z,5.15
2023-03-02T02:02:47.685Z,5.13
2023-03-02T02:05:20.769Z,5.08
2023-03-02T02:07:48.491Z,5.01
2023-03-02T02:10:17.655Z,5.01
2023-03-02T02:12:45.445Z,5.01
2023-03-02T02:15:13.179Z,4.99
2023-03-02T02:17:44.227Z,4.97
2023-03-02T02:20:24.189Z,4.99
2023-03-02T02:23:04.353Z,4.98
2023-03-02T02:25:46.205Z,4.98
2023-03-02T02:28:20.587Z,4.97
2023-03-02T02:30:53.301Z,4.93
2023-03-02T02:33:25.577Z,4.93
2023-03-02T02:35:57.122Z,4.92
2023-03-02T02:38:26.576Z,4.89
2023-03-02T02:40:58.063Z,4.91
2023-03-02T02:43:31.757Z,4.89
2023-03-02T02:46:01.277Z,4.82
2023-03-02T02:48:31.911Z,4.77
2023-03-02T02:51:03.077Z,4.71
2023-03-02T02:53:38.688Z,4.72
2023-03-02T02:56:09.596Z,4.74
2023-03-02T02:58:42.868Z,4.72
2023-03-02T03:01:14.240Z,4.72
2023-03-02T03:03:48.668Z,4.71
2023-03-02T03:06:20.920Z,4.79
2023-03-02T03:08:55.867Z,4.78
2023-03-02T03:11:26.571Z,4.73
2023-03-02T03:14:03.732Z,4.61
2023-03-02T03:16:33.894Z,4.49
2023-03-02T03:19:07.960Z,4.48
2023-03-02T03:21:36.206Z,4.50
2023-03-02T03:24:03.954Z,4.55
2023-03-02T03:26:31.990Z,4.55
2023-03-02T03:29:01.655Z,4.54
2023-03-02T03:31:29.866Z,4.64
2023-03-02T03:34:00.519Z,4.63
2023-03-02T03:36:29.112Z,4.64
2023-03-02T03:38:59.912Z,4.57
2023-03-02T03:41:27.935Z,4.55
2023-03-02T03:43:56.188Z,4.51
2023-03-02T03:46:26.219Z,4.51
2023-03-02T03:48:53.923Z,4.53
2023-03-02T03:51:21.657Z,4.56
2023-03-02T03:53:59.672Z,4.53
2023-03-02T03:56:27.504Z,4.50
2023-03-02T03:59:06.116Z,4.46
2023-03-02T04:01:36.613Z,4.37
2023-03-02T04:04:06.365Z,4.31
2023-03-02T04:06:34.372Z,4.41
2023-03-02T04:09:04.977Z,4.47
2023-03-02T04:11:37.765Z,4.51
2023-03-02T04:14:05.598Z,4.56
2023-03-02T04:16:35.606Z,4.58
2023-03-02T04:19:06.044Z,4.59
2023-03-02T04:21:33.729Z,4.54
2023-03-02T04:24:01.409Z,4.57
2023-03-02T04:26:29.101Z,4.58
2023-03-02T04:28:56.806Z,4.56
2023-03-02T04:31:24.447Z,4.54
2023-03-02T04:33:53.755Z,4.53
2023-03-02T04:36:21.514Z,4.50
2023-03-02T04:38:50.420Z,4.43
2023-03-02T04:41:19.385Z,4.41
2023-03-02T04:43:47.139Z,4.42
2023-03-02T04:46:24.428Z,4.38
2023-03-02T04:48:53.887Z,4.32
2023-03-02T04:51:25.086Z,4.23
2023-03-02T04:53:53.413Z,4.27
2023-03-02T04:56:21.104Z,4.28
2023-03-02T04:58:49.094Z,4.26
2023-03-02T05:01:18.480Z,4.15
2023-03-02T05:03:46.961Z,4.10
2023-03-02T05:06:16.336Z,4.08
2023-03-02T05:08:44.413Z,4.15
2023-03-02T05:11:15.832Z,4.21
2023-03-02T05:13:43.555Z,4.11
2023-03-02T05:16:11.150Z,4.06
2023-03-02T05:18:38.867Z,4.00
2023-03-02T05:21:07.328Z,4.06
2023-03-02T05:23:36.343Z,4.10
2023-03-02T05:26:04.315Z,4.10
2023-03-02T05:28:32.025Z,4.01
2023-03-02T05:31:00.266Z,3.99
2023-03-02T05:33:27.992Z,3.97
2023-03-02T05:35:55.902Z,4.02
2023-03-02T05:38:24.205Z,4.07
2023-03-02T05:40:53.250Z,3.99
2023-03-02T05:43:23.434Z,3.92
2023-03-02T05:45:51.164Z,3.88
2023-03-02T05:48:18.768Z,3.88
2023-03-02T05:50:46.490Z,3.79
2023-03-02T05:53:14.155Z,3.86
2023-03-02T05:55:41.778Z,3.88
2023-03-02T05:58:20.632Z,3.87
2023-03-02T06:00:49.505Z,3.87
2023-03-02T06:03:17.936Z,3.92
2023-03-02T06:05:50.750Z,3.94
2023-03-02T06:08:19.047Z,4.00
2023-03-02T06:10:47.173Z,4.02
2023-03-02T06:13:16.357Z,4.01
2023-03-02T06:15:44.175Z,4.04
2023-03-02T06:18:12.588Z,4.08
2023-03-02T06:20:40.871Z,4.07
2023-03-02T06:23:11.699Z,4.06
2023-03-02T06:25:41.330Z,4.11
2023-03-02T06:28:08.978Z,4.13
2023-03-02T06:30:38.023Z,4.23
2023-03-02T06:33:05.769Z,4.26
2023-03-02T06:35:33.451Z,4.27
2023-03-02T06:38:01.173Z,4.35
2023-03-02T06:40:28.932Z,4.41
2023-03-02T06:42:56.754Z,4.46
2023-03-02T06:45:24.424Z,4.44
2023-03-02T06:47:53.455Z,4.42
2023-03-02T06:50:21.433Z,4.44
2023-03-02T06:52:49.147Z,4.48
2023-03-02T06:55:17.001Z,4.52
2023-03-02T06:57:44.659Z,4.50
2023-03-02T07:00:17.258Z,4.61
2023-03-02T07:02:45.802Z,4.64
2023-03-02T07:05:14.801Z,4.70
2023-03-02T07:07:42.838Z,4.70
2023-03-02T07:10:12.219Z,4.76
2023-03-02T07:12:39.943Z,4.89
2023-03-02T07:15:11.379Z,5.04
2023-03-02T07:17:39.367Z,4.99
2023-03-02T07:20:08.441Z,4.97
2023-03-02T07:22:37.698Z,4.91
2023-03-02T07:25:06.249Z,4.95
2023-03-02T07:27:33.917Z,4.97
2023-03-02T07:30:01.850Z,4.99
2023-03-02T07:32:29.783Z,5.07
2023-03-02T07:34:57.498Z,5.14
2023-03-02T07:37:25.284Z,5.19
2023-03-02T07:39:55.381Z,5.30
2023-03-02T07:42:23.196Z,5.36
2023-03-02T07:44:53.363Z,5.39
2023-03-02T07:47:21.137Z,5.37
2023-03-02T07:49:48.838Z,5.45
2023-03-02T07:52:16.635Z,5.44
2023-03-02T07:54:44.458Z,5.50
2023-03-02T07:57:16.053Z,5.56
2023-03-02T07:59:43.997Z,5.66
2023-03-02T08:02:14.945Z,5.72
2023-03-02T08:04:42.899Z,5.79
2023-03-02T08:07:10.841Z,5.82
2023-03-02T08:09:39.453Z,5.86
2023-03-02T08:12:07.150Z,5.97
2023-03-02T08:14:36.626Z,5.96
2023-03-02T08:17:05.426Z,6.03
2023-03-02T08:19:33.396Z,6.10
2023-03-02T08:22:01.826Z,6.15
2023-03-02T08:24:29.428Z,6.27
2023-03-02T08:26:57.160Z,6.38
2023-03-02T08:29:25.136Z,6.47
2023-03-02T08:31:54.398Z,6.56
2023-03-02T08:34:22.197Z,6.73
2023-03-02T08:36:49.901Z,6.94
2023-03-02T08:39:17.597Z,7.06
2023-03-02T08:41:45.522Z,7.28
2023-03-02T08:44:13.181Z,7.46
2023-03-02T08:46:40.840Z,7.69
2023-03-02T08:49:09.882Z,7.91
2023-03-02T08:51:37.604Z,8.27
2023-03-02T08:54:05.495Z,8.86
2023-03-02T08:56:37.432Z,9.29
2023-03-02T08:59:06.928Z,9.66
2023-03-02T09:01:36.831Z,10.23
2023-03-02T09:04:06.465Z,10.90
2023-03-02T09:06:38.385Z,12.24
2023-03-02T09:09:07.362Z,14.23
2023-03-02T09:11:35.371Z,15.91
2023-03-02T09:14:03.650Z,16.81
2023-03-02T09:16:31.876Z,17.26
2023-03-02T09:18:59.647Z,18.84
2023-03-02T09:21:27.465Z,20.67
2023-03-02T09:23:58.328Z,21.16
2023-03-02T09:26:26.760Z,21.76
2023-03-02T09:28:54.498Z,22.19
2023-03-02T09:31:22.496Z,21.77
2023-03-02T09:33:50.249Z,20.36
2023-03-02T09:36:24.964Z,19.15
2023-03-02T09:38:53.368Z,18.47
2023-03-02T09:41:39.542Z,18.11
2023-03-02T09:44:25.200Z,17.97
2023-03-02T09:46:57.215Z,17.99
2023-03-02T09:49:44.646Z,17.92
2023-03-02T09:52:23.364Z,18.73
2023-03-02T09:54:51.151Z,19.39
2023-03-02T09:57:23.884Z,19.95
2023-03-02T09:59:56.453Z,21.01
2023-03-02T10:02:29.421Z,22.61
2023-03-02T10:04:59.486Z,22.20
2023-03-02T10:07:29.397Z,22.37
2023-03-02T10:10:05.669Z,23.14
2023-03-02T10:12:59.952Z,24.47
2023-03-02T10:15:32.932Z,25.05
2023-03-02T10:18:05.043Z,25.27
2023-03-02T10:20:38.513Z,25.78
2023-03-02T10:23:20.608Z,25.08
2023-03-02T10:25:52.348Z,23.92
2023-03-02T10:28:25.142Z,24.63
2023-03-02T10:30:59.147Z,25.43
2023-03-02T10:33:28.518Z,26.29
2023-03-02T10:35:56.213Z,26.67
2023-03-02T10:38:26.151Z,26.99
2023-03-02T10:41:00.075Z,26.83
2023-03-02T10:43:35.174Z,27.22
2023-03-02T10:46:04.873Z,28.21
2023-03-02T10:48:32.908Z,28.75
2023-03-02T10:51:01.263Z,29.10
2023-03-02T10:53:29.415Z,29.38
2023-03-02T10:55:57.272Z,28.04
2023-03-02T10:58:30.858Z,26.79
2023-03-02T11:01:03.378Z,27.18
2023-03-02T11:03:32.461Z,27.35
2023-03-02T11:06:12.062Z,25.86
2023-03-02T11:08:39.775Z,23.84
2023-03-02T11:11:07.442Z,21.93
2023-03-02T11:13:36.912Z,20.62
2023-03-02T11:16:24.863Z,19.78
2023-03-02T11:18:57.009Z,19.43
2023-03-02T11:21:31.126Z,20.43
2023-03-02T11:24:07.914Z,20.69
2023-03-02T11:26:40.694Z,20.41
2023-03-02T11:29:17.312Z,20.82
2023-03-02T11:31:51.733Z,20.99
2023-03-02T11:34:30.324Z,21.31
2023-03-02T11:37:04.740Z,21.63
2023-03-02T11:39:50.002Z,21.64
2023-03-02T11:42:29.909Z,22.11
2023-03-02T11:45:01.774Z,23.73
2023-03-02T11:47:33.992Z,25.48
2023-03-02T11:50:06.487Z,26.64
2023-03-02T11:52:38.773Z,27.37
2023-03-02T11:55:16.747Z,26.96
2023-03-02T11:57:49.516Z,26.44
2023-03-02T12:00:29.899Z,26.09
2023-03-02T12:03:04.922Z,26.36
2023-03-02T12:05:36.297Z,25.86
2023-03-02T12:08:06.737Z,25.45
2023-03-02T12:10:37.803Z,25.11
2023-03-02T12:13:16.649Z,25.31
2023-03-02T12:15:46.002Z,25.23
2023-03-02T12:18:49.156Z,24.55
2023-03-02T12:21:19.020Z,24.02
2023-03-02T12:24:03.826Z,23.21
2023-03-02T12:26:36.790Z,22.23
2023-03-02T12:29:22.618Z,21.43
2023-03-02T12:31:53.439Z,21.76
2023-03-02T12:34:34.644Z,22.41
2023-03-02T12:37:08.380Z,22.79
2023-03-02T12:39:54.496Z,22.65
2023-03-02T12:42:40.550Z,21.67
2023-03-02T12:45:25.318Z,20.15
2023-03-02T12:48:02.390Z,19.89
2023-03-02T12:50:34.952Z,21.11
2023-03-02T12:53:05.657Z,21.27
2023-03-02T12:55:34.537Z,21.60
2023-03-02T12:58:03.135Z,22.51
2023-03-02T13:00:32.691Z,22.26
2023-03-02T13:03:03.135Z,22.18
2023-03-02T13:05:34.521Z,22.22
2023-03-02T13:08:05.579Z,22.14
2023-03-02T13:10:37.004Z,21.48
2023-03-02T13:13:16.508Z,21.00
2023-03-02T13:15:55.473Z,20.43
2023-03-02T13:18:25.983Z,19.74
2023-03-02T13:20:56.538Z,19.24
2023-03-02T13:23:24.293Z,18.84
2023-03-02T13:25:53.926Z,18.91
2023-03-02T13:28:30.573Z,18.74
2023-03-02T13:31:00.925Z,18.46
2023-03-02T13:33:30.776Z,18.14
2023-03-02T13:36:00.524Z,17.63
2023-03-02T13:38:38.495Z,17.17
2023-03-02T13:41:06.491Z,16.64
2023-03-02T13:43:38.405Z,16.23
2023-03-02T13:46:08.131Z,16.01
2023-03-02T13:48:35.841Z,15.77
2023-03-02T13:51:16.646Z,15.70
2023-03-02T13:53:53.346Z,15.57
2023-03-02T13:56:29.876Z,15.31
2023-03-02T13:58:57.661Z,15.29
2023-03-02T14:01:25.861Z,15.16
2023-03-02T14:03:54.182Z,15.10
2023-03-02T14:06:24.493Z,15.03
2023-03-02T14:08:52.233Z,15.00
2023-03-02T14:11:19.985Z,15.01
2023-03-02T14:13:52.394Z,15.04
2023-03-02T14:16:20.003Z,15.00
2023-03-02T14:18:49.179Z,15.06
2023-03-02T14:21:18.989Z,15.02
2023-03-02T14:23:48.645Z,14.86
2023-03-02T14:26:31.738Z,14.81
2023-03-02T14:29:05.924Z,14.69
2023-03-02T14:31:34.504Z,14.61
2023-03-02T14:34:02.513Z,14.65
2023-03-02T14:36:33.098Z,14.64
2023-03-02T14:39:05.177Z,14.59
2023-03-02T14:41:38.511Z,14.50
2023-03-02T14:44:12.380Z,14.43
2023-03-02T14:46:40.083Z,14.36
2023-03-02T14:49:07.835Z,14.38
2023-03-02T14:51:37.657Z,14.33
2023-03-02T14:54:09.648Z,14.31
2023-03-02T14:56:38.245Z,14.27
2023-03-02T14:59:05.997Z,14.33
2023-03-02T15:01:33.814Z,14.26
2023-03-02T15:04:01.678Z,14.30
2023-03-02T15:06:31.034Z,14.30
2023-03-02T15:09:01.109Z,14.28
2023-03-02T15:11:30.816Z,14.22
2023-03-02T15:13:58.853Z,14.10
2023-03-02T15:16:26.676Z,13.97
2023-03-02T15:18:55.587Z,13.80
2023-03-02T15:21:25.570Z,13.72
2023-03-02T15:23:53.240Z,13.76
2023-03-02T15:26:21.042Z,13.73
2023-03-02T15:28:52.478Z,13.71
2023-03-02T15:31:21.471Z,13.69
2023-03-02T15:33:51.948Z,13.67
2023-03-02T15:36:20.749Z,13.70
2023-03-02T15:38:51.894Z,13.68
2023-03-02T15:41:20.543Z,13.68
2023-03-02T15:43:52.451Z,13.60
2023-03-02T15:46:20.604Z,13.54
2023-03-02T15:48:48.349Z,13.50
2023-03-02T15:51:16.223Z,13.45
2023-03-02T15:53:43.945Z,13.40
2023-03-02T15:56:13.813Z,13.34
2023-03-02T15:58:42.076Z,13.28
2023-03-02T16:01:12.411Z,13.19
2023-03-02T16:03:40.193Z,13.13
2023-03-02T16:06:09.045Z,13.05
2023-03-02T16:08:37.109Z,13.02
2023-03-02T16:11:07.073Z,12.99
2023-03-02T16:13:35.734Z,12.93
2023-03-02T16:16:05.697Z,12.87
2023-03-02T16:18:34.909Z,12.83
2023-03-02T16:21:03.527Z,12.77
2023-03-02T16:23:31.295Z,12.71
2023-03-02T16:26:08.506Z,12.68
2023-03-02T16:28:36.582Z,12.61
2023-03-02T16:31:05.050Z,12.58
2023-03-02T16:33:34.550Z,12.54
2023-03-02T16:36:02.216Z,12.50
2023-03-02T16:38:30.012Z,12.43
2023-03-02T16:40:57.749Z,12.40
2023-03-02T16:43:25.492Z,12.36
2023-03-02T16:45:53.572Z,12.30
2023-03-02T16:48:21.676Z,12.25
2023-03-02T16:50:56.857Z,12.22
2023-03-02T16:53:25.136Z,12.19
2023-03-02T16:55:52.813Z,12.16
2023-03-02T16:58:20.630Z,12.12
2023-03-02T17:00:48.439Z,12.10
2023-03-02T17:03:17.065Z,12.07
2023-03-02T17:05:44.874Z,12.05
2023-03-02T17:08:16.285Z,12.01
2023-03-02T17:10:45.244Z,11.98
2023-03-02T17:13:15.479Z,12.07
2023-03-02T17:15:43.585Z,11.97
2023-03-02T17:18:11.855Z,11.89
2023-03-02T17:20:41.772Z,11.84
2023-03-02T17:23:11.927Z,11.79
2023-03-02T17:25:41.325Z,11.78
2023-03-02T17:28:09.240Z,11.77
2023-03-02T17:30:37.004Z,11.74
2023-03-02T17:33:04.795Z,11.70
2023-03-02T17:35:32.429Z,11.64
2023-03-02T17:38:00.241Z,11.58
2023-03-02T17:40:28.053Z,11.54
2023-03-02T17:42:57.911Z,11.53
2023-03-02T17:45:27.704Z,11.54
2023-03-02T17:47:56.706Z,11.54
2023-03-02T17:50:25.662Z,11.51
2023-03-02T17:52:54.227Z,11.48
2023-03-02T17:55:22.010Z,11.41
2023-03-02T17:57:50.035Z,11.36
2023-03-02T18:00:22.065Z,11.32
2023-03-02T18:02:50.387Z,11.28
2023-03-02T18:05:18.302Z,11.23
2023-03-02T18:07:46.215Z,11.20
2023-03-02T18:10:15.106Z,11.16
2023-03-02T18:12:43.469Z,11.15
2023-03-02T18:15:13.248Z,11.15
2023-03-02T18:17:42.325Z,11.11
2023-03-02T18:20:12.093Z,11.11
2023-03-02T18:22:40.078Z,11.08
2023-03-02T18:25:09.173Z,11.04
2023-03-02T18:27:37.053Z,11.01
2023-03-02T18:30:05.546Z,10.94
2023-03-02T18:32:33.434Z,10.88
2023-03-02T18:35:02.582Z,10.79
2023-03-02T18:37:30.629Z,10.78
2023-03-02T18:39:58.440Z,10.79
2023-03-02T18:42:26.129Z,10.73
2023-03-02T18:44:54.172Z,10.69
2023-03-02T18:47:21.942Z,10.68
2023-03-02T18:49:49.794Z,10.67
2023-03-02T18:52:18.938Z,10.68
2023-03-02T18:54:49.429Z,10.67
2023-03-02T18:57:17.185Z,10.65
2023-03-02T18:59:45.026Z,10.60
2023-03-02T19:02:14.613Z,10.60
2023-03-02T19:04:42.939Z,10.57
2023-03-02T19:07:10.837Z,10.76
2023-03-02T19:09:40.065Z,10.65
2023-03-02T19:12:07.929Z,10.57
2023-03-02T19:14:35.680Z,10.51
2023-03-02T19:17:03.439Z,10.49
2023-03-02T19:19:31.318Z,10.48
2023-03-02T19:21:59.395Z,10.45
2023-03-02T19:24:27.054Z,10.45
2023-03-02T19:26:56.118Z,10.43
2023-03-02T19:29:23.915Z,10.41
2023-03-02T19:31:51.788Z,10.37
2023-03-02T19:34:19.561Z,10.33
2023-03-02T19:36:47.462Z,10.32
2023-03-02T19:39:15.671Z,10.28
2023-03-02T19:41:43.428Z,10.26
2023-03-02T19:44:12.585Z,10.25
2023-03-02T19:46:40.478Z,10.21
2023-03-02T19:49:08.319Z,10.17
2023-03-02T19:51:36.182Z,10.13
2023-03-02T19:54:04.253Z,10.09
2023-03-02T19:56:34.895Z,10.09
2023-03-02T19:59:03.154Z,10.04
2023-03-02T20:01:32.277Z,10.03
2023-03-02T20:04:00.098Z,9.96
2023-03-02T20:06:31.211Z,9.96
2023-03-02T20:09:00.559Z,9.93
2023-03-02T20:11:28.827Z,9.90
2023-03-02T20:13:57.339Z,9.80
2023-03-02T20:16:25.084Z,9.74
2023-03-02T20:18:54.228Z,9.71
2023-03-02T20:21:25.813Z,9.67
2023-03-02T20:23:53.586Z,9.59
2023-03-02T20:26:21.626Z,9.56
2023-03-02T20:28:49.598Z,9.59
2023-03-02T20:31:17.678Z,9.58
2023-03-02T20:33:48.145Z,9.54
2023-03-02T20:36:20.767Z,9.53
2023-03-02T20:38:52.200Z,9.53
2023-03-02T20:41:20.594Z,9.55
2023-03-02T20:43:48.350Z,9.51
2023-03-02T20:46:22.438Z,9.45
2023-03-02T20:48:50.463Z,9.43
2023-03-02T20:51:19.981Z,9.41
2023-03-02T20:53:47.933Z,9.40
2023-03-02T20:56:18.061Z,9.33
2023-03-02T20:58:46.972Z,9.32
2023-03-02T21:01:17.352Z,9.36
2023-03-02T21:03:45.404Z,9.33
2023-03-02T21:06:15.126Z,9.31
2023-03-02T21:08:45.672Z,9.34
2023-03-02T21:11:16.162Z,9.32
2023-03-02T21:13:46.352Z,9.25
2023-03-02T21:16:18.571Z,9.17
2023-03-02T21:18:46.401Z,9.15
2023-03-02T21:21:14.434Z,9.15
2023-03-02T21:23:42.532Z,9.16
2023-03-02T21:26:12.786Z,9.16
2023-03-02T21:28:43.985Z,9.19
2023-03-02T21:31:12.577Z,9.21
2023-03-02T21:33:40.735Z,9.17
2023-03-02T21:36:09.691Z,9.15
2023-03-02T21:38:37.298Z,9.12
2023-03-02T21:41:05.257Z,9.05
2023-03-02T21:43:34.530Z,8.99
2023-03-02T21:46:02.282Z,8.99
2023-03-02T21:48:29.990Z,8.98
2023-03-02T21:50:57.800Z,8.93
2023-03-02T21:53:25.404Z,8.86
2023-03-02T21:55:54.910Z,8.81
2023-03-02T21:58:22.894Z,8.81
2023-03-02T22:00:51.875Z,8.78
2023-03-02T22:03:19.593Z,8.78
2023-03-02T22:05:47.358Z,8.75
2023-03-02T22:08:18.400Z,8.74
2023-03-02T22:10:48.188Z,8.67
2023-03-02T22:13:20.301Z,8.64
2023-03-02T22:15:49.289Z,8.58
2023-03-02T22:18:20.857Z,8.54
2023-03-02T22:20:50.961Z,8.52
2023-03-02T22:23:21.008Z,8.44
2023-03-02T22:25:50.447Z,8.41
2023-03-02T22:28:20.852Z,8.39
2023-03-02T22:30:49.346Z,8.36
2023-03-02T22:33:21.821Z,8.38
2023-03-02T22:35:50.952Z,8.39
2023-03-02T22:38:24.864Z,8.38
2023-03-02T22:40:53.384Z,8.36
2023-03-02T22:43:25.931Z,8.33
2023-03-02T22:45:53.938Z,8.31
2023-03-02T22:48:25.476Z,8.24
2023-03-02T22:50:53.182Z,8.16
2023-03-02T22:53:28.193Z,8.14
2023-03-02T22:55:58.420Z,8.07
2023-03-02T22:58:30.581Z,8.07
2023-03-02T23:00:59.246Z,8.02
2023-03-02T23:03:37.850Z,8.04
2023-03-02T23:06:20.544Z,7.97
2023-03-02T23:08:48.223Z,8.00
2023-03-02T23:11:18.471Z,7.98
2023-03-02T23:13:46.531Z,7.98
2023-03-02T23:16:20.243Z,7.98
2023-03-02T23:18:50.328Z,7.96
2023-03-02T23:21:20.372Z,7.96
2023-03-02T23:23:48.358Z,7.97
2023-03-02T23:26:19.527Z,8.00
2023-03-02T23:28:48.980Z,7.99
2023-03-02T23:31:18.376Z,7.98
2023-03-02T23:33:46.572Z,7.92
2023-03-02T23:36:16.158Z,7.85
2023-03-02T23:38:43.890Z,7.83
2023-03-02T23:41:11.519Z,7.84
2023-03-02T23:43:39.258Z,7.86
2023-03-02T23:46:07.098Z,7.87
2023-03-02T23:48:35.096Z,7.87
2023-03-02T23:51:02.777Z,7.84
2023-03-02T23:53:31.771Z,7.84
2023-03-02T23:55:59.542Z,7.83
2023-03-02T23:58:27.423Z,7.81
